Terminal Aerodrome Forecast
Issued by NWS

Home | Current Version | Previous Version | Text Only | Print | Product List | Glossary On
Versions: 1 2 3 4 5 6 7 8 9 10 11 12 13 14 15
000
FTUS45 KRIW 010500
TAFRKS
TAF
KRKS 010525Z 0106/0206 07015KT 4SM -SN SCT028 OVC035
      TEMPO 0106/0110 2SM -SN OVC024
     FM011000 07011KT P6SM VCSH OVC026
     FM011500 08011KT P6SM BKN030
     FM011900 08010KT P6SM SCT030 BKN045
     FM020400 VRB05KT P6SM BKN060=

USA.gov is the U.S. government's official web portal to all federal, state and local government web resources and services.